Latest Weather Observations for Flinders Island Airport

IDT60801

Issued at 9:05 am EST Wednesday 30 July 2014 (issued every 30 minutes, with the page automatically refreshed every 10 minutes)

About weather observations | Map of weather stations | Latest weather observations for TAS | Other Formats
Station Details ID: 099005 Name: FLINDERS ISLAND AIRPORT Lat: -40.09 Lon: 148.00 Height: 9.0 m
Data from the previous 72 hours. | See also: Recent months at Flinders Island Airport
Date/Time
EST
Temp
°C
App
Temp
°C
Dew
Point
Rel
Hum
%
Delta-T
°C
Wind Press
QNH
hPa
Press
MSL
hPa
Rain
since 9 am
mm
Dir
 
Spd
km/h
Gust
km/h
Spd
kts
Gust
kts
30/09:00am 13.8 7.2 10.0 78 2.0 WNW 35 50 19 27 1006.6 1006.6 4.2
30/08:41am 13.8 8.3 9.3 74 2.3 WNW 28 46 15 25 1006.4 - 4.2
30/08:30am 13.4 7.9 9.1 75 2.2 WNW 28 37 15 20 1006.3 - 4.2
30/08:00am 13.3 6.8 9.0 75 2.2 WNW 33 43 18 23 1006.5 1006.5 4.2
30/07:36am 13.3 7.1 9.4 77 2.0 WNW 32 50 17 27 1006.4 - 4.2
30/07:30am 13.2 7.0 9.3 77 2.0 WNW 32 39 17 21 1006.5 - 4.2
30/07:00am 13.0 7.5 9.3 78 1.9 WNW 28 39 15 21 1006.3 1006.3 4.2
30/06:30am 13.2 6.3 8.9 75 2.2 W 35 50 19 27 1006.1 - 4.2
30/06:00am 13.0 5.7 8.7 75 2.2 W 37 54 20 29 1005.9 1005.9 4.2
30/05:30am 13.3 5.2 8.6 73 2.4 W 41 54 22 29 1005.7 - 4.2
30/05:00am 13.1 5.6 9.5 79 1.8 W 39 50 21 27 1005.3 1005.3 4.2
30/04:30am 13.2 5.7 9.6 79 1.8 W 39 52 21 28 1004.8 - 4.2
30/04:00am 13.4 4.6 9.5 77 2.0 W 46 59 25 32 1004.5 1004.5 4.2
30/03:37am 13.4 4.5 9.3 76 2.1 W 46 65 25 35 1004.2 - 4.2
30/03:30am 13.3 4.0 9.2 76 2.1 W 48 63 26 34 1004.1 - 4.2
30/03:00am 13.6 5.2 9.8 78 2.0 WNW 44 63 24 34 1003.7 1003.7 4.2
30/02:30am 13.5 3.6 9.9 79 1.9 W 52 74 28 40 1003.5 - 4.2
30/02:00am 13.2 2.2 10.4 83 1.5 W 59 78 32 42 1003.2 1003.2 4.2
30/01:49am 13.5 2.8 10.3 81 1.7 W 57 76 31 41 1003.0 - 4.2
30/01:35am 13.9 5.0 10.5 80 1.8 WNW 48 70 26 38 1002.5 - 4.0
30/01:30am 13.9 5.4 10.7 81 1.7 WNW 46 63 25 34 1002.5 - 4.0
30/01:00am 14.1 5.7 9.7 75 2.3 WNW 44 67 24 36 1002.4 1002.4 4.0
30/12:30am 14.0 4.3 9.0 72 2.5 WNW 50 69 27 37 1002.2 - 4.0
30/12:00am 13.9 4.2 8.9 72 2.5 WNW 50 69 27 37 1002.2 1002.2 4.0
 
Date/Time
EST
Temp
°C
App
Temp
°C
Dew
Point
Rel
Hum
%
Delta-T
°C
Wind Press
QNH
hPa
Press
MSL
hPa
Rain
since 9 am
mm
Dir
 
Spd
km/h
Gust
km/h
Spd
kts
Gust
kts
29/11:30pm 13.9 3.7 8.5 70 2.7 W 52 70 28 38 1002.1 - 4.0
29/11:00pm 14.1 2.3 9.1 72 2.6 W 61 82 33 44 1002.0 1002.0 4.0
29/10:30pm 14.0 3.7 9.6 75 2.3 WNW 54 89 29 48 1002.0 - 4.0
29/10:02pm 14.1 3.3 9.9 76 2.2 W 57 78 31 42 1001.4 - 4.0
29/10:00pm 14.1 3.3 9.9 76 2.2 W 57 74 31 40 1001.4 1001.4 4.0
29/09:30pm 13.8 4.8 10.4 80 1.8 WNW 48 67 26 36 1001.0 - 4.0
29/09:00pm 13.9 4.3 10.9 82 1.6 WNW 52 72 28 39 1000.5 1000.5 4.0
29/08:43pm 13.8 3.0 11.1 84 1.4 WNW 59 80 32 43 1000.6 - 4.0
29/08:38pm 13.7 2.9 11.2 85 1.3 WNW 59 80 32 43 1000.6 - 4.0
29/08:30pm 13.4 2.1 10.9 85 1.3 W 61 82 33 44 1000.7 - 4.0
29/08:22pm 14.0 2.4 11.2 83 1.5 WNW 63 87 34 47 1000.5 - 3.6
29/08:05pm 13.9 1.2 11.4 85 1.3 WNW 69 96 37 52 1000.2 - 3.2
29/08:00pm 14.1 1.2 11.4 84 1.4 WNW 70 96 38 52 1000.1 1000.1 3.2
29/07:46pm 13.9 2.1 11.8 87 1.1 NW 65 91 35 49 999.3 - 3.2
29/07:30pm 13.6 2.2 11.7 88 1.0 NW 63 82 34 44 999.3 - 3.2
29/07:12pm 13.5 2.4 11.7 89 1.0 NW 61 82 33 44 999.2 - 3.2
29/07:00pm 13.3 3.2 11.7 90 0.9 NW 56 80 30 43 999.4 999.4 3.2
29/06:49pm 13.2 2.9 11.6 90 0.9 WNW 57 80 31 43 999.5 - 3.0
29/06:37pm 13.1 2.3 11.3 89 1.0 NW 59 78 32 42 999.4 - 2.4
29/06:34pm 13.2 2.0 11.3 88 1.0 NW 61 76 33 41 999.4 - 2.4
29/06:31pm 13.2 2.4 11.4 89 1.0 NW 59 83 32 45 999.3 - 2.4
29/06:30pm 13.1 2.7 11.3 89 1.0 NW 57 83 31 45 999.3 - 2.4
29/06:11pm 13.2 2.4 11.3 88 1.0 NW 59 82 32 44 999.3 - 2.2
29/06:07pm 13.2 2.4 11.3 88 1.0 NW 59 87 32 47 999.3 - 2.0
29/06:00pm 13.1 2.7 11.2 88 1.0 NW 57 78 31 42 999.2 999.2 2.0
29/05:49pm 13.2 1.9 10.9 86 1.2 NW 61 91 33 49 999.1 - 2.0
29/05:32pm 13.1 2.2 11.0 87 1.1 NW 59 80 32 43 999.1 - 1.8
29/05:30pm 13.1 2.2 11.0 87 1.1 NW 59 80 32 43 999.1 - 1.8
29/05:14pm 13.1 2.5 10.8 86 1.2 NW 57 76 31 41 999.3 - 1.8
29/05:00pm 13.2 2.6 10.6 84 1.4 NW 57 76 31 41 999.2 999.2 1.6
29/04:30pm 13.5 3.9 10.7 83 1.5 NW 52 70 28 38 999.5 - 1.4
29/04:00pm 13.7 3.3 10.7 82 1.6 NW 56 78 30 42 999.6 999.6 1.4
29/03:30pm 13.3 3.3 10.7 84 1.4 NW 54 83 29 45 999.8 - 1.4
29/03:00pm 13.0 2.9 10.5 85 1.3 NW 54 78 29 42 999.5 999.5 1.0
29/02:37pm 13.0 4.5 10.5 85 1.3 NW 46 65 25 35 999.7 - 0.8
29/02:36pm 13.0 4.5 10.5 85 1.3 NW 46 65 25 35 999.7 - 0.8
29/02:30pm 13.0 4.0 10.4 84 1.3 WNW 48 65 26 35 999.8 - 0.8
29/02:12pm 13.3 2.4 9.7 79 1.8 NW 57 83 31 45 1000.0 - 0.0
29/02:00pm 14.3 3.4 9.5 73 2.5 NW 57 78 31 42 999.7 999.7 0.0
29/01:30pm 14.8 4.4 9.4 70 2.8 NW 54 72 29 39 999.5 - 0.0
29/01:00pm 14.9 4.8 9.1 68 3.0 NW 52 74 28 40 1000.0 1000.0 0.0
29/12:30pm 14.9 4.9 9.3 69 2.9 NW 52 76 28 41 1000.5 - 0.0
29/12:00pm 14.6 5.3 9.2 70 2.8 NW 48 67 26 36 1001.0 1001.0 0.0
29/11:31am 14.7 5.9 9.5 71 2.7 NW 46 74 25 40 1001.6 - 0.0
29/11:30am 14.7 5.9 9.5 71 2.7 NW 46 61 25 33 1001.6 - 0.0
29/11:00am 14.6 5.3 9.0 69 2.9 NW 48 69 26 37 1002.1 1002.1 0.0
29/10:30am 14.6 6.1 9.4 71 2.7 NW 44 65 24 35 1002.5 - 0.0
29/10:00am 14.5 5.6 9.3 71 2.7 NW 46 72 25 39 1003.0 1003.0 0.0
29/09:30am 14.2 6.3 9.2 72 2.5 NW 41 59 22 32 1003.0 - 0.0
29/09:00am 13.5 4.6 9.2 75 2.2 NW 46 65 25 35 1002.9 1002.9 0.8
29/08:30am 13.2 4.7 9.3 77 2.0 NW 44 67 24 36 1003.1 - 0.8
29/08:03am 13.3 5.4 9.2 76 2.1 NW 41 59 22 32 1003.2 - 0.6
29/08:00am 13.4 5.1 9.3 76 2.1 NW 43 59 23 32 1003.2 1003.2 0.6
29/07:30am 13.9 5.4 8.7 71 2.6 NNW 43 61 23 33 1003.6 - 0.6
29/07:11am 13.3 6.1 9.2 76 2.1 NNW 37 57 20 31 1003.7 - 0.6
29/07:00am 12.8 6.0 9.3 79 1.8 NNW 35 52 19 28 1003.7 1003.7 0.6
29/06:32am 14.0 6.7 8.6 70 2.7 NW 37 56 20 30 1003.6 - 0.6
29/06:30am 13.9 6.2 8.5 70 2.7 NW 39 56 21 30 1003.6 - 0.6
29/06:00am 13.9 6.5 8.5 70 2.7 NW 37 52 20 28 1003.8 1003.8 0.6
29/05:35am 14.1 5.5 8.1 67 3.0 NW 43 61 23 33 1003.9 - 0.6
29/05:30am 13.9 5.1 7.9 67 3.0 NW 44 61 24 33 1004.0 - 0.6
29/05:00am 13.8 5.2 8.0 68 2.9 NW 43 63 23 34 1004.3 1004.3 0.6
29/04:36am 13.7 5.4 7.9 68 2.9 NW 41 59 22 32 1004.4 - 0.6
29/04:30am 13.8 5.2 8.0 68 2.9 NW 43 56 23 30 1004.5 - 0.6
29/04:02am 13.8 6.6 7.8 67 3.0 NW 35 54 19 29 1004.9 - 0.6
29/04:00am 13.7 6.6 7.9 68 2.9 NW 35 50 19 27 1005.0 1005.0 0.6
29/03:48am 13.6 6.6 8.4 71 2.6 NW 35 54 19 29 1005.2 - 0.6
29/03:30am 12.9 7.4 9.2 78 1.9 NNW 28 44 15 24 1005.5 - 0.6
29/03:00am 12.8 7.2 8.9 77 2.0 NW 28 48 15 26 1006.1 1006.1 0.4
29/02:34am 14.0 7.5 9.0 72 2.5 NW 33 52 18 28 1006.6 - 0.0
29/02:30am 13.9 7.4 8.9 72 2.5 NW 33 50 18 27 1006.6 - 0.0
29/02:00am 14.2 6.9 8.6 69 2.8 NW 37 56 20 30 1007.0 1007.0 0.0
29/01:56am 14.3 7.0 8.7 69 2.8 NW 37 56 20 30 1007.0 - 0.0
29/01:30am 14.2 6.9 8.8 70 2.7 NW 37 52 20 28 1007.2 - 0.0
29/01:00am 14.4 7.5 8.8 69 2.8 NW 35 54 19 29 1007.5 1007.5 0.0
29/12:59am 14.3 7.4 8.7 69 2.8 NW 35 54 19 29 1007.5 - 0.0
29/12:30am 14.4 6.8 9.0 70 2.7 NW 39 56 21 30 1007.8 - 0.0
29/12:00am 14.2 7.3 8.8 70 2.7 NW 35 59 19 32 1007.9 1007.9 0.0
 
Date/Time
EST
Temp
°C
App
Temp
°C
Dew
Point
Rel
Hum
%
Delta-T
°C
Wind Press
QNH
hPa
Press
MSL
hPa
Rain
since 9 am
mm
Dir
 
Spd
km/h
Gust
km/h
Spd
kts
Gust
kts
28/11:38pm 14.0 7.5 9.0 72 2.5 NNW 33 52 18 28 1007.8 - 0.0
28/11:30pm 14.0 7.7 9.0 72 2.5 NW 32 48 17 26 1007.9 - 0.0
28/11:00pm 14.4 8.1 8.8 69 2.8 NW 32 43 17 23 1008.4 1008.5 0.0
28/10:30pm 14.5 8.2 8.9 69 2.8 NW 32 43 17 23 1008.4 - 0.0
28/10:18pm 14.3 7.8 8.9 70 2.7 NW 33 52 18 28 1008.5 - 0.0
28/10:00pm 14.1 8.2 9.1 72 2.5 NW 30 43 16 23 1008.8 1008.9 0.0
28/09:30pm 13.7 8.7 9.4 75 2.2 NW 26 37 14 20 1008.9 - 0.0
28/09:00pm 14.0 9.8 9.8 76 2.2 NW 22 33 12 18 1009.2 1009.3 0.0
28/08:30pm 14.3 8.5 9.3 72 2.6 NW 30 41 16 22 1009.2 - 0.0
28/08:00pm 13.9 8.9 9.7 76 2.2 WNW 26 35 14 19 1009.0 1009.1 0.0
28/07:30pm 13.0 8.7 9.3 78 1.9 NW 22 30 12 16 1009.1 - 0.0
28/07:00pm 13.1 9.1 9.2 77 2.0 NW 20 30 11 16 1009.1 1009.2 0.0
28/06:30pm 13.1 8.8 9.2 77 2.0 NW 22 26 12 14 1009.4 - 0.0
28/06:00pm 12.8 8.1 9.1 78 1.9 WNW 24 32 13 17 1009.2 1009.3 0.0
28/05:30pm 13.1 7.3 9.4 78 1.9 WNW 30 39 16 21 1009.2 - 0.0
28/05:00pm 13.2 7.4 9.3 77 2.0 WNW 30 39 16 21 1009.4 1009.5 0.0
28/04:30pm 13.7 8.3 9.4 75 2.2 WNW 28 44 15 24 1009.3 - 0.0
28/04:00pm 14.2 9.2 9.6 74 2.4 WNW 26 35 14 19 1009.4 1009.5 0.0
28/03:30pm 14.6 8.3 9.8 73 2.5 WNW 33 43 18 23 1009.6 - 0.0
28/03:00pm 14.7 8.6 9.7 72 2.6 WNW 32 43 17 23 1009.6 1009.7 0.0
28/02:30pm 15.2 8.9 9.8 70 2.8 WNW 33 44 18 24 1009.6 - 0.0
28/02:00pm 15.1 8.9 9.5 69 2.9 WNW 32 43 17 23 1009.6 1009.7 0.0
28/01:57pm 15.1 8.9 9.2 68 3.0 WNW 32 50 17 27 1009.7 - 0.0
28/01:30pm 15.4 7.8 8.9 65 3.3 WNW 39 52 21 28 1009.9 - 0.0
28/01:00pm 15.4 8.1 8.9 65 3.3 WNW 37 50 20 27 1010.2 1010.3 0.0
28/12:30pm 15.0 8.1 8.7 66 3.2 WNW 35 56 19 30 1010.8 - 0.0
28/12:21pm 15.0 8.1 8.7 66 3.2 WNW 35 56 19 30 1010.9 - 0.0
28/12:00pm 16.3 9.9 9.5 64 3.5 WNW 33 46 18 25 1011.1 1011.2 0.0
28/11:30am 15.7 7.9 8.4 62 3.7 NW 39 50 21 27 1011.5 - 0.0
28/11:00am 15.9 8.7 9.1 64 3.5 NW 37 52 20 28 1011.8 1011.9 0.0
28/10:30am 15.5 8.6 9.0 65 3.3 NW 35 48 19 26 1012.1 - 0.0
28/10:00am 14.6 7.1 7.9 64 3.3 NW 37 48 20 26 1012.2 1012.3 0.0
28/09:30am 15.1 7.8 8.6 65 3.3 WNW 37 50 20 27 1012.4 - 0.0
28/09:09am 14.6 7.2 8.5 67 3.1 WNW 37 56 20 30 1012.5 - 0.0
28/09:00am 14.6 7.2 8.5 67 3.1 WNW 37 52 20 28 1012.5 1012.6 0.2
28/08:30am 14.5 7.1 8.5 67 3.0 NW 37 52 20 28 1012.6 - 0.2
28/08:00am 13.7 6.2 8.1 69 2.8 NW 37 52 20 28 1012.9 1013.0 0.2
28/07:30am 13.6 6.5 8.0 69 2.8 NW 35 48 19 26 1013.1 - 0.2
28/07:00am 13.4 5.9 7.8 69 2.8 NW 37 52 20 28 1013.1 1013.2 0.2
28/06:30am 13.3 6.9 8.4 72 2.4 NW 32 43 17 23 1012.7 - 0.2
28/06:00am 13.0 7.3 8.5 74 2.2 NW 28 35 15 19 1012.8 1012.9 0.2
28/05:30am 13.1 7.8 8.4 73 2.3 NW 26 33 14 18 1013.0 - 0.2
28/05:00am 12.7 7.1 8.6 76 2.0 NW 28 37 15 20 1013.1 1013.2 0.2
28/04:30am 12.6 7.8 8.7 77 1.9 NW 24 33 13 18 1013.4 - 0.2
28/04:00am 12.6 7.8 8.9 78 1.9 NW 24 35 13 19 1013.6 1013.7 0.2
28/03:30am 12.5 7.0 9.0 79 1.8 NW 28 39 15 21 1013.8 - 0.2
28/03:00am 12.6 7.0 8.9 78 1.9 NW 28 35 15 19 1014.3 1014.4 0.2
28/02:30am 12.6 6.7 8.9 78 1.9 NW 30 37 16 20 1014.6 - 0.2
28/02:00am 12.7 6.8 9.0 78 1.9 NW 30 39 16 21 1014.7 1014.8 0.2
28/01:30am 12.6 7.1 9.1 79 1.8 NW 28 41 15 22 1014.7 - 0.2
28/01:00am 12.5 7.3 9.0 79 1.8 NW 26 33 14 18 1015.1 1015.2 0.2
28/12:30am 12.6 7.0 8.7 77 1.9 NW 28 37 15 20 1015.4 - 0.2
28/12:00am 12.8 7.6 8.9 77 2.0 NW 26 39 14 21 1015.7 1015.8 0.2
 
Date/Time
EST
Temp
°C
App
Temp
°C
Dew
Point
Rel
Hum
%
Delta-T
°C
Wind Press
QNH
hPa
Press
MSL
hPa
Rain
since 9 am
mm
Dir
 
Spd
km/h
Gust
km/h
Spd
kts
Gust
kts
27/11:30pm 12.8 7.6 8.9 77 2.0 NW 26 33 14 18 1016.1 - 0.2
27/11:00pm 12.8 7.7 9.1 78 1.9 NW 26 37 14 20 1016.4 1016.5 0.2
27/10:30pm 12.7 8.0 9.2 79 1.8 NW 24 33 13 18 1016.8 - 0.2
27/10:00pm 13.0 8.0 9.4 79 1.8 WNW 26 35 14 19 1017.1 1017.2 0.2
27/09:30pm 12.8 8.6 9.8 82 1.5 WNW 22 30 12 16 1017.1 - 0.2
27/09:00pm 12.4 8.5 9.6 83 1.4 WNW 20 28 11 15 1017.5 1017.6 0.2
27/08:30pm 12.4 8.5 9.6 83 1.4 WNW 20 28 11 15 1017.6 - 0.2
27/08:00pm 12.6 9.0 10.0 84 1.3 WNW 19 26 10 14 1017.6 1017.7 0.2
27/07:30pm 12.4 8.5 9.6 83 1.4 WNW 20 30 11 16 1017.8 - 0.2
27/07:00pm 12.5 7.9 9.5 82 1.5 WNW 24 30 13 16 1018.0 1018.0 0.2
27/06:30pm 12.3 6.8 9.1 81 1.6 WNW 28 37 15 20 1018.2 - 0.2
27/06:00pm 12.2 7.2 9.6 84 1.3 WNW 26 35 14 19 1018.1 1018.1 0.2
27/05:30pm 11.9 7.5 9.1 83 1.4 WNW 22 30 12 16 1017.8 - 0.2
27/05:00pm 12.3 7.7 9.5 83 1.4 WNW 24 32 13 17 1018.1 1018.1 0.2
27/04:30pm 12.5 7.9 9.7 83 1.4 WNW 24 30 13 16 1018.2 - 0.2
27/04:00pm 12.9 8.7 9.9 82 1.5 WNW 22 30 12 16 1018.5 1018.5 0.2
27/03:30pm 13.3 8.1 10.1 81 1.7 WNW 28 39 15 21 1018.5 - 0.2
27/03:24pm 13.5 8.7 10.3 81 1.7 WNW 26 33 14 18 1018.5 - 0.2
27/03:04pm 13.2 9.0 9.8 80 1.7 WNW 22 30 12 16 1018.6 - 0.2
27/03:00pm 13.5 9.3 9.9 79 1.8 W 22 30 12 16 1018.6 1018.6 0.2
27/02:30pm 13.7 9.1 9.7 77 2.1 W 24 30 13 16 1018.7 - 0.2
27/02:00pm 13.8 9.2 9.6 76 2.1 W 24 30 13 16 1018.9 1018.9 0.2
27/01:30pm 14.0 9.4 9.6 75 2.3 W 24 32 13 17 1019.2 - 0.0
27/01:00pm 14.0 9.8 9.8 76 2.2 W 22 30 12 16 1019.4 1019.4 0.0
27/12:30pm 14.0 9.3 9.4 74 2.4 W 24 32 13 17 1019.9 - 0.0
27/12:00pm 14.1 9.9 9.9 76 2.2 W 22 32 12 17 1020.5 1020.5 0.0
27/11:30am 13.7 7.7 10.1 79 1.9 W 32 39 17 21 1021.0 - 0.0
27/11:00am 13.3 7.5 10.7 84 1.4 W 32 39 17 21 1021.6 1021.6 0.0
27/10:30am 13.3 8.4 11.4 88 1.0 W 28 33 15 18 1021.9 - 0.0
27/10:07am 13.0 8.1 11.2 89 0.9 W 28 33 15 18 1022.0 - 0.0
27/10:00am 13.0 7.7 11.4 90 0.8 W 30 35 16 19 1022.0 1022.0 0.0
27/09:30am 13.0 9.4 11.7 92 0.7 W 22 28 12 15 1021.9 - 0.0

Other Formats:

Comma delimited format used in spreadsheet applications
http://www.bom.gov.au/fwo/IDT60801/IDT60801.94980.axf

JavaScript Object Notation format (JSON) in row-major order
http://www.bom.gov.au/fwo/IDT60801/IDT60801.94980.json